createdAt,value
2017-05-18T00:00:10.627Z,20.30
2017-05-18T00:02:39.173Z,20.30
2017-05-18T00:05:07.488Z,20.30
2017-05-18T00:07:35.798Z,20.30
2017-05-18T00:10:04.116Z,20.10
2017-05-18T00:12:33.164Z,20.20
2017-05-18T00:15:01.478Z,20.40
2017-05-18T00:17:29.796Z,20.50
2017-05-18T00:19:58.108Z,20.60
2017-05-18T00:22:26.416Z,20.40
2017-05-18T00:24:55.486Z,20.20
2017-05-18T00:27:23.792Z,20.40
2017-05-18T00:29:52.847Z,20.40
2017-05-18T00:32:21.180Z,20.50
2017-05-18T00:34:49.491Z,20.50
2017-05-18T00:37:17.795Z,20.60
2017-05-18T00:39:46.117Z,20.60
2017-05-18T00:42:14.428Z,20.70
2017-05-18T00:44:42.743Z,20.60
2017-05-18T00:47:11.804Z,20.60
2017-05-18T00:49:40.116Z,20.60
2017-05-18T00:52:09.165Z,20.40
2017-05-18T00:54:37.503Z,20.30
2017-05-18T00:57:05.825Z,20.20
2017-05-18T00:59:34.132Z,20.20
2017-05-18T01:02:03.199Z,20.10
2017-05-18T01:04:31.507Z,20.00
2017-05-18T01:07:00.556Z,20.00
2017-05-18T01:09:28.880Z,19.90
2017-05-18T01:11:57.936Z,19.90
2017-05-18T01:14:26.247Z,19.90
2017-05-18T01:16:55.311Z,20.00
2017-05-18T01:19:23.624Z,20.10
2017-05-18T01:21:52.672Z,20.10
2017-05-18T01:24:20.996Z,20.20
2017-05-18T01:26:50.047Z,19.90
2017-05-18T01:29:18.352Z,20.00
2017-05-18T01:31:46.692Z,19.70
2017-05-18T01:34:15.013Z,19.70
2017-05-18T01:36:44.068Z,19.80
2017-05-18T01:39:12.392Z,19.70
2017-05-18T01:41:41.467Z,19.30
2017-05-18T01:44:09.783Z,19.40
2017-05-18T01:46:38.096Z,19.40
2017-05-18T01:49:06.432Z,19.40
2017-05-18T01:51:34.776Z,19.30
2017-05-18T01:54:03.100Z,19.40
2017-05-18T01:56:31.427Z,19.50
2017-05-18T01:58:59.748Z,19.40
2017-05-18T02:01:28.080Z,19.40
2017-05-18T02:03:56.396Z,19.50
2017-05-18T02:06:24.860Z,19.60
2017-05-18T02:08:53.921Z,19.40
2017-05-18T02:11:22.228Z,19.20
2017-05-18T02:13:51.276Z,19.20
2017-05-18T02:16:19.596Z,19.00
2017-05-18T02:18:48.649Z,19.00
2017-05-18T02:21:16.968Z,19.20
2017-05-18T02:23:46.024Z,19.10
2017-05-18T02:26:14.327Z,19.20
2017-05-18T02:28:43.385Z,19.30
2017-05-18T02:31:11.756Z,19.50
2017-05-18T02:33:40.064Z,19.30
2017-05-18T02:36:08.384Z,19.40
2017-05-18T02:38:36.708Z,19.30
2017-05-18T02:41:05.015Z,19.20
2017-05-18T02:43:34.067Z,19.10
2017-05-18T02:46:02.395Z,18.70
2017-05-18T02:48:30.715Z,18.70
2017-05-18T02:50:59.124Z,18.70
2017-05-18T02:53:27.703Z,18.80
2017-05-18T02:55:56.015Z,18.70
2017-05-18T02:58:24.346Z,18.70
2017-05-18T03:00:52.674Z,18.80
2017-05-18T03:03:20.980Z,18.80
2017-05-18T03:05:49.298Z,19.00
2017-05-18T03:08:18.356Z,18.90
2017-05-18T03:10:46.768Z,18.70
2017-05-18T03:13:15.823Z,18.40
2017-05-18T03:15:44.146Z,18.30
2017-05-18T03:18:13.202Z,18.20
2017-05-18T03:20:41.507Z,18.00
2017-05-18T03:23:09.831Z,18.20
2017-05-18T03:25:38.137Z,18.40
2017-05-18T03:28:06.455Z,18.40
2017-05-18T03:30:35.524Z,18.30
2017-05-18T03:33:03.831Z,18.40
2017-05-18T03:35:32.148Z,18.20
2017-05-18T03:38:00.471Z,18.00
2017-05-18T03:40:29.516Z,18.00
2017-05-18T03:42:57.830Z,18.10
2017-05-18T03:45:26.152Z,17.80
2017-05-18T03:47:54.460Z,17.80
2017-05-18T03:50:22.773Z,17.70
2017-05-18T03:52:52.055Z,17.90
2017-05-18T03:55:20.372Z,17.90
2017-05-18T03:57:48.693Z,17.90
2017-05-18T04:00:17.097Z,17.60
2017-05-18T04:02:46.147Z,17.60
2017-05-18T04:05:14.467Z,17.90
2017-05-18T04:07:42.784Z,17.90
2017-05-18T04:10:11.095Z,17.90
2017-05-18T04:12:39.405Z,18.00
2017-05-18T04:15:08.467Z,18.00
2017-05-18T04:17:36.777Z,18.00
2017-05-18T04:20:05.832Z,18.20
2017-05-18T04:22:34.167Z,18.40
2017-05-18T04:25:02.480Z,18.30
2017-05-18T04:27:30.796Z,18.30
2017-05-18T04:29:59.892Z,18.30
2017-05-18T04:32:28.952Z,18.20
2017-05-18T04:34:57.268Z,18.50
2017-05-18T04:37:26.327Z,18.40
2017-05-18T04:39:54.736Z,18.50
2017-05-18T04:42:23.792Z,18.60
2017-05-18T04:44:52.119Z,18.80
2017-05-18T04:47:21.176Z,18.80
2017-05-18T04:49:49.489Z,18.90
2017-05-18T04:52:18.575Z,18.90
2017-05-18T04:54:47.626Z,18.70
2017-05-18T04:57:15.947Z,18.60
2017-05-18T04:59:45.035Z,18.70
2017-05-18T05:02:14.087Z,18.80
2017-05-18T05:04:42.397Z,18.90
2017-05-18T05:07:11.463Z,18.80
2017-05-18T05:09:39.769Z,18.80
2017-05-18T05:12:08.080Z,18.90
2017-05-18T05:14:36.400Z,18.90
2017-05-18T05:17:04.771Z,18.90
2017-05-18T05:19:33.078Z,19.00
2017-05-18T05:22:01.411Z,19.20
2017-05-18T05:24:29.723Z,19.10
2017-05-18T05:26:58.043Z,18.60
2017-05-18T05:29:26.369Z,18.90
2017-05-18T05:31:54.684Z,19.20
2017-05-18T05:34:22.995Z,19.30
2017-05-18T05:36:51.327Z,19.40
2017-05-18T05:39:20.378Z,19.60
2017-05-18T05:41:48.698Z,19.70
2017-05-18T05:44:17.759Z,19.80
2017-05-18T05:46:46.064Z,19.80
2017-05-18T05:49:15.118Z,19.90
2017-05-18T05:51:43.438Z,19.80
2017-05-18T05:54:12.487Z,19.60
2017-05-18T05:56:40.799Z,19.70
2017-05-18T05:59:09.861Z,19.80
2017-05-18T06:01:38.172Z,19.90
2017-05-18T06:04:07.228Z,19.80
2017-05-18T06:06:35.574Z,20.10
2017-05-18T06:09:03.897Z,20.40
2017-05-18T06:11:32.208Z,20.50
2017-05-18T06:14:00.536Z,20.30
2017-05-18T06:16:28.843Z,20.40
2017-05-18T06:18:57.161Z,20.60
2017-05-18T06:21:25.900Z,20.90
2017-05-18T06:23:54.224Z,21.00
2017-05-18T06:26:22.589Z,20.80
2017-05-18T06:28:51.647Z,20.70
2017-05-18T06:31:19.990Z,20.80
2017-05-18T06:33:48.292Z,20.90
2017-05-18T06:36:16.620Z,21.10
2017-05-18T06:38:44.930Z,21.20
2017-05-18T06:41:13.247Z,21.10
2017-05-18T06:43:42.323Z,20.90
2017-05-18T06:46:11.436Z,21.00
2017-05-18T06:48:40.486Z,20.90
2017-05-18T06:51:09.435Z,21.00
2017-05-18T06:53:37.752Z,21.00
2017-05-18T06:56:06.076Z,21.20
2017-05-18T06:58:35.126Z,21.60
2017-05-18T07:01:03.436Z,21.80
2017-05-18T07:03:32.503Z,21.60
2017-05-18T07:06:01.283Z,21.70
2017-05-18T07:08:29.595Z,21.70
2017-05-18T07:10:57.912Z,21.60
2017-05-18T07:13:26.220Z,21.90
2017-05-18T07:15:54.531Z,22.30
2017-05-18T07:18:23.592Z,22.50
2017-05-18T07:20:51.903Z,22.60
2017-05-18T07:23:20.957Z,22.00
2017-05-18T07:25:49.284Z,21.80
2017-05-18T07:28:17.604Z,22.00
2017-05-18T07:30:45.918Z,22.40
2017-05-18T07:33:14.236Z,22.30
2017-05-18T07:35:42.550Z,22.30
2017-05-18T07:38:10.862Z,22.60
2017-05-18T07:40:39.936Z,22.50
2017-05-18T07:43:08.256Z,22.20
2017-05-18T07:45:36.643Z,22.50
2017-05-18T07:48:04.956Z,22.70
2017-05-18T07:50:33.268Z,22.80
2017-05-18T07:53:02.320Z,23.20
2017-05-18T07:55:30.639Z,23.20
2017-05-18T07:57:59.691Z,23.20
2017-05-18T08:00:28.003Z,23.10
2017-05-18T08:02:57.064Z,23.20
2017-05-18T08:05:25.371Z,23.40
2017-05-18T08:07:54.417Z,23.40
2017-05-18T08:10:22.740Z,23.70
2017-05-18T08:12:51.795Z,23.80
2017-05-18T08:15:20.107Z,23.90
2017-05-18T08:17:49.176Z,23.80
2017-05-18T08:20:17.496Z,23.90
2017-05-18T08:22:46.544Z,24.00
2017-05-18T08:25:14.863Z,23.70
2017-05-18T08:27:43.933Z,23.90
2017-05-18T08:30:12.248Z,24.30
2017-05-18T08:32:40.571Z,24.60
2017-05-18T08:35:08.960Z,24.50
2017-05-18T08:37:37.279Z,24.40
2017-05-18T08:40:05.600Z,24.50
2017-05-18T08:42:33.911Z,24.40
2017-05-18T08:45:02.962Z,24.70
2017-05-18T08:47:31.284Z,24.60
2017-05-18T08:50:00.336Z,24.70
2017-05-18T08:52:28.652Z,25.10
2017-05-18T08:54:57.701Z,25.10
2017-05-18T08:57:26.011Z,25.20
2017-05-18T08:59:55.064Z,25.40
2017-05-18T09:02:23.401Z,25.70
2017-05-18T09:04:51.721Z,25.90
2017-05-18T09:07:20.032Z,26.00
2017-05-18T09:09:48.404Z,25.90
2017-05-18T09:12:16.709Z,26.00
2017-05-18T09:14:45.755Z,25.90
2017-05-18T09:17:14.070Z,25.40
2017-05-18T09:19:43.112Z,25.10
2017-05-18T09:22:11.520Z,24.80
2017-05-18T09:24:39.851Z,25.00
2017-05-18T09:27:08.158Z,25.30
2017-05-18T09:29:36.469Z,25.40
2017-05-18T09:32:05.540Z,25.60
2017-05-18T09:34:33.853Z,25.70
2017-05-18T12:45:28.848Z,31.70
2017-05-18T12:47:57.148Z,32.00
2017-05-18T12:50:26.189Z,32.20
2017-05-18T12:52:54.504Z,32.20
2017-05-18T12:55:23.546Z,32.20
2017-05-18T12:57:51.847Z,32.40
2017-05-18T13:00:20.157Z,32.80
2017-05-18T13:02:49.212Z,32.90
2017-05-18T13:05:17.524Z,32.90
2017-05-18T13:07:46.577Z,33.00
2017-05-18T13:10:14.875Z,32.80
2017-05-18T13:12:43.185Z,32.30
2017-05-18T13:15:11.500Z,32.30
2017-05-18T13:17:39.806Z,32.70
2017-05-18T13:20:08.133Z,32.70
2017-05-18T13:22:36.439Z,32.60
2017-05-18T13:25:04.746Z,32.10
2017-05-18T13:27:33.798Z,31.90
2017-05-18T13:30:02.119Z,32.30
2017-05-18T13:32:31.163Z,32.50
2017-05-18T13:34:59.492Z,32.90
2017-05-18T13:37:28.552Z,33.10
2017-05-18T13:39:56.882Z,33.50
2017-05-18T13:42:25.188Z,33.70
2017-05-18T13:44:53.499Z,33.70
2017-05-18T13:47:21.803Z,33.60
2017-05-18T13:49:50.849Z,33.40
2017-05-18T13:52:19.160Z,33.40
2017-05-18T13:54:48.215Z,33.60
2017-05-18T13:57:16.987Z,33.50
2017-05-18T13:59:45.298Z,33.50
2017-05-18T14:02:13.617Z,33.70
2017-05-18T14:04:41.940Z,34.00
2017-05-18T14:07:10.252Z,34.10
2017-05-18T14:09:39.295Z,34.20
2017-05-18T14:12:07.596Z,34.50
2017-05-18T14:14:35.908Z,33.90
2017-05-18T14:17:04.960Z,34.00
2017-05-18T14:19:33.264Z,34.30
2017-05-18T14:22:02.322Z,34.70
2017-05-18T14:24:30.620Z,35.10
2017-05-18T14:26:58.919Z,35.30
2017-05-18T14:29:27.976Z,35.40
2017-05-18T14:31:56.284Z,35.10
2017-05-18T14:34:25.331Z,34.80
2017-05-18T14:36:53.652Z,34.90
2017-05-18T14:39:22.699Z,34.80
2017-05-18T14:41:51.004Z,34.90
2017-05-18T14:44:19.316Z,35.30
2017-05-18T14:46:48.364Z,35.40
2017-05-18T14:49:16.673Z,35.80
2017-05-18T14:51:45.732Z,35.10
2017-05-18T14:54:14.039Z,35.10
2017-05-18T14:56:42.388Z,35.10
2017-05-18T14:59:10.696Z,34.70
2017-05-18T15:01:39.756Z,34.90
2017-05-18T15:04:08.059Z,35.10
2017-05-18T15:06:36.376Z,34.80
2017-05-18T15:09:04.680Z,34.70
2017-05-18T15:11:33.043Z,34.70
2017-05-18T15:14:01.347Z,34.80
2017-05-18T15:16:29.647Z,34.80
2017-05-18T15:18:57.958Z,35.00
2017-05-18T15:21:26.286Z,35.00
2017-05-18T15:23:55.078Z,35.30
2017-05-18T15:26:23.389Z,35.60
2017-05-18T15:28:51.716Z,35.80
2017-05-18T15:31:20.015Z,35.80
2017-05-18T15:33:48.321Z,36.10
2017-05-18T15:36:16.642Z,36.00
2017-05-18T15:38:44.944Z,36.20
2017-05-18T15:41:13.245Z,36.90
2017-05-18T15:43:41.574Z,37.90
2017-05-18T15:46:09.877Z,38.50
2017-05-18T15:48:38.928Z,37.60
2017-05-18T15:51:07.237Z,36.80
2017-05-18T15:53:35.543Z,36.60
2017-05-18T15:56:04.595Z,36.20
2017-05-18T15:58:32.913Z,36.00
2017-05-18T16:01:01.227Z,35.50
2017-05-18T16:03:29.529Z,35.20
2017-05-18T16:05:57.916Z,34.90
2017-05-18T16:08:26.254Z,34.60
2017-05-18T16:10:54.559Z,34.60
2017-05-18T16:13:22.870Z,34.40
2017-05-18T16:15:51.923Z,34.10
2017-05-18T16:18:20.225Z,34.00
2017-05-18T16:20:48.534Z,33.80
2017-05-18T16:23:16.848Z,33.30
2017-05-18T16:25:45.155Z,33.20
2017-05-18T16:28:13.463Z,33.10
2017-05-18T16:30:41.771Z,32.90
2017-05-18T16:33:10.079Z,32.60
2017-05-18T16:35:38.397Z,32.30
2017-05-18T16:38:06.716Z,31.80
2017-05-18T16:40:35.085Z,31.40
2017-05-18T16:43:03.408Z,31.30
2017-05-18T16:45:32.453Z,31.00
2017-05-18T16:48:00.756Z,30.80
2017-05-18T16:50:29.130Z,30.40
2017-05-18T16:52:57.433Z,30.30
2017-05-18T16:55:26.481Z,30.10
2017-05-18T16:57:54.802Z,30.10
2017-05-18T17:00:23.849Z,29.90
2017-05-18T17:02:52.264Z,29.80
2017-05-18T17:05:21.328Z,29.60
2017-05-18T17:07:49.635Z,29.30
2017-05-18T17:10:17.946Z,29.10
2017-05-18T17:12:46.261Z,29.10
2017-05-18T17:15:14.571Z,29.10
2017-05-18T17:17:43.621Z,29.20
2017-05-18T17:20:11.934Z,29.30
2017-05-18T17:22:40.984Z,29.40
2017-05-18T17:25:09.290Z,29.50
2017-05-18T17:27:37.624Z,29.50
2017-05-18T17:30:05.956Z,29.30
2017-05-18T17:32:34.268Z,29.10
2017-05-18T17:35:02.588Z,29.10
2017-05-18T17:37:30.895Z,29.10
2017-05-18T17:39:59.951Z,28.80
2017-05-18T17:42:28.267Z,28.80
2017-05-18T17:44:57.316Z,28.30
2017-05-18T17:47:25.625Z,28.10
2017-05-18T17:49:53.937Z,28.10
2017-05-18T17:52:22.245Z,28.10
2017-05-18T17:54:50.549Z,28.20
2017-05-18T17:57:18.861Z,28.20
2017-05-18T17:59:47.168Z,28.00
2017-05-18T18:02:15.475Z,28.10
2017-05-18T18:04:43.788Z,27.80
2017-05-18T18:07:12.128Z,27.70
2017-05-18T18:09:40.435Z,27.80
2017-05-18T18:12:09.492Z,27.70
2017-05-18T18:14:37.808Z,27.50
2017-05-18T18:17:06.859Z,27.60
2017-05-18T18:19:35.170Z,27.60
2017-05-18T18:22:04.212Z,27.50
2017-05-18T18:24:32.516Z,27.60
2017-05-18T18:27:00.839Z,27.60
2017-05-18T18:29:29.175Z,27.40
2017-05-18T18:31:57.483Z,27.30
2017-05-18T18:34:26.029Z,27.30
2017-05-18T18:36:54.346Z,27.40
2017-05-18T18:39:22.663Z,27.40
2017-05-18T18:41:50.983Z,27.40
2017-05-18T18:44:20.036Z,27.00
2017-05-18T18:46:48.340Z,27.00
2017-05-18T18:49:16.648Z,27.00
2017-05-18T18:51:44.979Z,27.00
2017-05-18T18:54:13.309Z,27.00
2017-05-18T18:56:41.626Z,27.10
2017-05-18T18:59:10.710Z,27.00
2017-05-18T19:01:39.027Z,26.80
2017-05-18T19:04:08.075Z,26.60
2017-05-18T19:06:36.385Z,26.60
2017-05-18T19:09:04.701Z,26.70
2017-05-18T19:11:33.012Z,26.40
2017-05-18T19:14:01.315Z,26.40
2017-05-18T19:16:29.624Z,26.30
2017-05-18T19:18:57.944Z,26.30
2017-05-18T19:21:26.248Z,26.20
2017-05-18T19:23:54.552Z,26.40
2017-05-18T19:26:22.870Z,26.40
2017-05-18T19:28:51.172Z,26.30
2017-05-18T19:31:19.480Z,26.10
2017-05-18T19:33:47.803Z,25.80
2017-05-18T19:36:16.210Z,25.90
2017-05-18T19:38:44.531Z,25.90
2017-05-18T19:41:12.858Z,25.70
2017-05-18T19:43:41.162Z,25.80
2017-05-18T19:46:09.476Z,25.80
2017-05-18T19:48:37.795Z,25.60
2017-05-18T19:51:06.100Z,25.70
2017-05-18T19:53:34.413Z,25.50
2017-05-18T19:56:02.738Z,25.60
2017-05-18T19:58:31.783Z,25.50
2017-05-18T20:01:00.087Z,25.30
2017-05-18T20:03:28.404Z,25.30
2017-05-18T20:05:56.708Z,25.20
2017-05-18T20:08:25.013Z,25.20
2017-05-18T20:10:53.336Z,25.20
2017-05-18T20:13:21.642Z,25.20
2017-05-18T20:15:49.947Z,25.20
2017-05-18T20:18:18.260Z,25.30
2017-05-18T20:20:46.693Z,25.30
2017-05-18T20:23:15.004Z,25.20
2017-05-18T20:25:44.360Z,25.20
2017-05-18T20:28:12.656Z,25.30
2017-05-18T20:30:40.966Z,25.30
2017-05-18T20:33:09.275Z,25.30
2017-05-18T20:35:37.579Z,25.10
2017-05-18T20:38:05.888Z,25.00
2017-05-18T20:40:34.943Z,25.10
2017-05-18T20:43:03.811Z,25.00
2017-05-18T20:45:32.121Z,24.90
2017-05-18T20:48:01.155Z,24.90
2017-05-18T20:50:29.491Z,24.80
2017-05-18T20:52:57.792Z,24.90
2017-05-18T20:55:26.847Z,24.60
2017-05-18T20:57:55.151Z,24.20
2017-05-18T21:00:24.192Z,23.90
2017-05-18T21:02:52.510Z,23.60
2017-05-18T21:05:21.400Z,23.90
2017-05-18T21:07:49.759Z,23.90
2017-05-18T21:10:18.067Z,24.00
2017-05-18T21:12:47.694Z,24.10
2017-05-18T21:15:16.787Z,24.30
2017-05-18T21:17:45.108Z,24.50
2017-05-18T21:20:13.416Z,24.50
2017-05-18T21:22:42.091Z,24.50
2017-05-18T21:25:10.416Z,24.40
2017-05-18T21:27:38.731Z,24.50
2017-05-18T21:30:07.049Z,24.50
2017-05-18T21:32:36.115Z,24.30
2017-05-18T21:35:04.947Z,24.00
2017-05-18T21:37:33.672Z,23.80
2017-05-18T21:40:01.983Z,23.60
2017-05-18T21:42:31.031Z,23.50
2017-05-18T21:44:59.952Z,23.30
2017-05-18T21:47:28.721Z,23.50
2017-05-18T21:49:57.404Z,23.60
2017-05-18T21:52:25.712Z,23.50
2017-05-18T21:54:54.039Z,23.60
2017-05-18T21:57:22.348Z,23.60
2017-05-18T21:59:50.669Z,23.80
2017-05-18T22:02:18.989Z,23.90
2017-05-18T22:04:47.297Z,23.80
2017-05-18T22:07:15.615Z,23.80
2017-05-18T22:09:43.933Z,23.80
2017-05-18T22:12:12.248Z,23.50
2017-05-18T22:14:40.567Z,23.40
2017-05-18T22:17:08.912Z,23.50
2017-05-18T22:19:37.216Z,23.50
2017-05-18T22:22:05.524Z,23.50
2017-05-18T22:24:33.873Z,23.40
2017-05-18T22:27:02.172Z,23.40
2017-05-18T22:29:30.475Z,23.40
2017-05-18T22:31:59.553Z,23.40
2017-05-18T22:34:27.923Z,23.40
2017-05-18T22:36:56.232Z,23.40
2017-05-18T22:39:24.576Z,23.00
2017-05-18T22:41:52.887Z,22.90
2017-05-18T22:44:21.193Z,23.00
2017-05-18T22:46:49.532Z,22.90
2017-05-18T22:49:18.580Z,23.00
2017-05-18T22:51:46.879Z,23.10
2017-05-18T22:54:15.212Z,23.20
2017-05-18T22:56:43.520Z,23.30
2017-05-18T22:59:11.837Z,23.30
2017-05-18T23:01:40.917Z,23.20
2017-05-18T23:04:09.972Z,23.10
2017-05-18T23:06:38.287Z,23.10
2017-05-18T23:09:07.351Z,23.20
2017-05-18T23:11:35.664Z,23.20
2017-05-18T23:14:04.718Z,23.20
2017-05-18T23:16:33.095Z,23.20
2017-05-18T23:19:01.404Z,22.90
2017-05-18T23:21:30.463Z,22.80
2017-05-18T23:23:58.783Z,22.80
2017-05-18T23:26:27.833Z,22.70
2017-05-18T23:28:56.143Z,22.60
2017-05-18T23:31:24.459Z,22.60
2017-05-18T23:33:52.773Z,22.50
2017-05-18T23:36:21.076Z,22.60
2017-05-18T23:38:50.156Z,22.70
2017-05-18T23:41:18.471Z,22.60
2017-05-18T23:43:46.786Z,22.70
2017-05-18T23:46:15.116Z,22.60
2017-05-18T23:48:43.442Z,22.60
2017-05-18T23:51:11.748Z,22.30
2017-05-18T23:53:40.067Z,21.90
2017-05-18T23:56:08.376Z,21.70
2017-05-18T23:58:36.683Z,21.70
